DLH71MW HECA-EDDB
Flight info
| Callsign | DLH71MW |
|---|---|
| Flight time | 3h 36m |
| Altitude | 40000 |
| Route | CVO L617 NOZ L551 ANTAR UN133 KOROS DCT PEREN UL863 EVIVI L863 OKANA DCT TONDO DCT BEGLA DCT NAVTI DCT BODAL DCT ODLIV DCT LEGAZ DCT BEFRE T204 NUKRO NUKRO1L |
| Aircraft | A35K/H-SDE2E3GHIJ3J4J5LM1ORWXY/LB1D1 |
Departure
| Time | 2026-02-21 02:55 |
|---|---|
| Airport | Cairo International Airport (HECA) |
Arrival
| Time | 2026-02-21 06:31 |
|---|---|
| Airport | Berlin Brandenburg Airport (EDDB) |
| Time | Latitude | Longitude | Altitude | Speed | Heading |
|---|---|---|---|---|---|
| 2026-02-21 02:06 | 30.10780 | 31.39521 | 380 ft | 0 kts | 76° |
| 2026-02-21 02:11 | 30.10783 | 31.39534 | 380 ft | 0 kts | 76° |
| 2026-02-21 02:43 | 30.10783 | 31.39533 | 380 ft | 1 kts | 76° |
| 2026-02-21 02:43 | 30.10780 | 31.39518 | 380 ft | 3 kts | 76° |
| 2026-02-21 02:43 | 30.10775 | 31.39496 | 380 ft | 3 kts | 76° |
| 2026-02-21 02:43 | 30.10770 | 31.39475 | 380 ft | 2 kts | 76° |
| 2026-02-21 02:44 | 30.10767 | 31.39458 | 380 ft | 3 kts | 97° |
| 2026-02-21 02:44 | 30.10773 | 31.39441 | 380 ft | 3 kts | 152° |
| 2026-02-21 02:44 | 30.10792 | 31.39433 | 380 ft | 3 kts | 167° |
| 2026-02-21 02:44 | 30.10802 | 31.39431 | 380 ft | 0 kts | 165° |
| 2026-02-21 02:47 | 30.10801 | 31.39431 | 380 ft | 1 kts | 165° |
| 2026-02-21 02:48 | 30.10782 | 31.39437 | 380 ft | 5 kts | 165° |
| 2026-02-21 02:48 | 30.10736 | 31.39451 | 380 ft | 9 kts | 165° |
| 2026-02-21 02:48 | 30.10666 | 31.39472 | 380 ft | 12 kts | 165° |
| 2026-02-21 02:48 | 30.10610 | 31.39539 | 380 ft | 13 kts | 92° |
| 2026-02-21 02:49 | 30.10632 | 31.39653 | 380 ft | 16 kts | 76° |
| 2026-02-21 02:49 | 30.10578 | 31.39744 | 380 ft | 13 kts | 141° |
| 2026-02-21 02:49 | 30.10528 | 31.39840 | 380 ft | 15 kts | 123° |
| 2026-02-21 02:49 | 30.10493 | 31.39958 | 380 ft | 17 kts | 72° |
| 2026-02-21 02:50 | 30.10567 | 31.40070 | 380 ft | 19 kts | 48° |
| 2026-02-21 02:50 | 30.10659 | 31.40190 | 380 ft | 21 kts | 49° |
| 2026-02-21 02:50 | 30.10709 | 31.40289 | 380 ft | 12 kts | 97° |
| 2026-02-21 02:50 | 30.10644 | 31.40320 | 380 ft | 12 kts | 205° |
| 2026-02-21 02:51 | 30.10579 | 31.40242 | 380 ft | 15 kts | 229° |
| 2026-02-21 02:51 | 30.10504 | 31.40141 | 380 ft | 18 kts | 228° |
| 2026-02-21 02:51 | 30.10396 | 31.40156 | 380 ft | 18 kts | 138° |
| 2026-02-21 02:51 | 30.10293 | 31.40259 | 380 ft | 21 kts | 140° |
| 2026-02-21 02:52 | 30.10176 | 31.40374 | 380 ft | 23 kts | 139° |
| 2026-02-21 02:52 | 30.10047 | 31.40502 | 380 ft | 25 kts | 139° |
| 2026-02-21 02:52 | 30.09907 | 31.40640 | 380 ft | 27 kts | 139° |
| 2026-02-21 02:52 | 30.09785 | 31.40804 | 380 ft | 27 kts | 92° |
| 2026-02-21 02:53 | 30.09817 | 31.41027 | 380 ft | 29 kts | 79° |
| 2026-02-21 02:53 | 30.09849 | 31.41214 | 380 ft | 17 kts | 78° |
| 2026-02-21 02:53 | 30.09873 | 31.41356 | 380 ft | 20 kts | 79° |
| 2026-02-21 02:53 | 30.09901 | 31.41519 | 380 ft | 22 kts | 79° |
| 2026-02-21 02:54 | 30.09926 | 31.41684 | 380 ft | 14 kts | 92° |
| 2026-02-21 02:54 | 30.09867 | 31.41773 | 380 ft | 16 kts | 141° |
| 2026-02-21 02:54 | 30.09776 | 31.41862 | 380 ft | 18 kts | 139° |
| 2026-02-21 02:54 | 30.09791 | 31.42006 | 376 ft | 30 kts | 48° |
| 2026-02-21 02:55 | 30.10070 | 31.42376 | 381 ft | 97 kts | 49° |
| 2026-02-21 02:55 | 30.10662 | 31.43163 | 380 ft | 161 kts | 49° |
| 2026-02-21 02:55 | 30.11458 | 31.44187 | 963 ft | 171 kts | 46° |
| 2026-02-21 02:55 | 30.12269 | 31.45154 | 1895 ft | 168 kts | 44° |
| 2026-02-21 02:56 | 30.13167 | 31.46091 | 2306 ft | 188 kts | 32° |
| 2026-02-21 02:56 | 30.14502 | 31.46462 | 2485 ft | 214 kts | 353° |
| 2026-02-21 02:56 | 30.15852 | 31.45646 | 2802 ft | 232 kts | 313° |
| 2026-02-21 02:56 | 30.16530 | 31.43901 | 3225 ft | 250 kts | 276° |
| 2026-02-21 02:57 | 30.16158 | 31.41941 | 3916 ft | 256 kts | 240° |
| 2026-02-21 02:57 | 30.14859 | 31.40543 | 4651 ft | 261 kts | 207° |
| 2026-02-21 02:57 | 30.13074 | 31.40211 | 5389 ft | 266 kts | 173° |
| 2026-02-21 02:57 | 30.11397 | 31.41085 | 6123 ft | 271 kts | 141° |
| 2026-02-21 02:58 | 30.10306 | 31.42871 | 6835 ft | 276 kts | 119° |
| 2026-02-21 02:58 | 30.09569 | 31.44916 | 7442 ft | 284 kts | 108° |
| 2026-02-21 02:58 | 30.09426 | 31.47214 | 8015 ft | 294 kts | 82° |
| 2026-02-21 02:58 | 30.10256 | 31.49385 | 8615 ft | 301 kts | 51° |
| 2026-02-21 02:59 | 30.11935 | 31.50824 | 9232 ft | 303 kts | 20° |
| 2026-02-21 02:59 | 30.14002 | 31.51129 | 9870 ft | 301 kts | 348° |
| 2026-02-21 02:59 | 30.15311 | 31.50660 | 10254 ft | 297 kts | 329° |
| 2026-02-21 02:59 | 30.17015 | 31.49251 | 10559 ft | 308 kts | 313° |
| 2026-02-21 03:00 | 30.18978 | 31.46741 | 10878 ft | 327 kts | 305° |
| 2026-02-21 03:00 | 30.19939 | 31.45318 | 11065 ft | 337 kts | 304° |
| 2026-02-21 03:00 | 30.21384 | 31.43151 | 11305 ft | 352 kts | 304° |
| 2026-02-21 03:00 | 30.22962 | 31.40874 | 11631 ft | 362 kts | 306° |
| 2026-02-21 03:01 | 30.24581 | 31.38660 | 12150 ft | 367 kts | 307° |
| 2026-02-21 03:01 | 30.26282 | 31.36430 | 12693 ft | 371 kts | 308° |
| 2026-02-21 03:01 | 30.28020 | 31.34212 | 13215 ft | 374 kts | 308° |
| 2026-02-21 03:01 | 30.29791 | 31.31980 | 13738 ft | 377 kts | 308° |
| 2026-02-21 03:02 | 30.31576 | 31.29739 | 14238 ft | 380 kts | 308° |
| 2026-02-21 03:02 | 30.33372 | 31.27480 | 14709 ft | 383 kts | 308° |
| 2026-02-21 03:02 | 30.35176 | 31.25204 | 15214 ft | 385 kts | 308° |
| 2026-02-21 03:02 | 30.36993 | 31.22908 | 15712 ft | 388 kts | 307° |
| 2026-02-21 03:03 | 30.38817 | 31.20595 | 16226 ft | 390 kts | 307° |
| 2026-02-21 03:03 | 30.40655 | 31.18261 | 16709 ft | 393 kts | 307° |
| 2026-02-21 03:03 | 30.42502 | 31.15913 | 17223 ft | 395 kts | 307° |
| 2026-02-21 03:03 | 30.44361 | 31.13548 | 17727 ft | 398 kts | 307° |
| 2026-02-21 03:04 | 30.46237 | 31.11161 | 18232 ft | 401 kts | 307° |
| 2026-02-21 03:04 | 30.48095 | 31.08793 | 18682 ft | 404 kts | 307° |
| 2026-02-21 03:04 | 30.49994 | 31.06374 | 19128 ft | 406 kts | 307° |
| 2026-02-21 03:04 | 30.51897 | 31.03946 | 19554 ft | 408 kts | 307° |
| 2026-02-21 03:05 | 30.53815 | 31.01500 | 19984 ft | 410 kts | 307° |
| 2026-02-21 03:05 | 30.55744 | 30.99037 | 20417 ft | 413 kts | 307° |
| 2026-02-21 03:05 | 30.57684 | 30.96560 | 20844 ft | 415 kts | 307° |
| 2026-02-21 03:05 | 30.59628 | 30.94076 | 21323 ft | 416 kts | 307° |
| 2026-02-21 03:06 | 30.61577 | 30.91584 | 21778 ft | 417 kts | 307° |
| 2026-02-21 03:06 | 30.63508 | 30.89114 | 22183 ft | 420 kts | 307° |
| 2026-02-21 03:06 | 30.65499 | 30.86563 | 22590 ft | 422 kts | 306° |
| 2026-02-21 03:06 | 30.67452 | 30.84060 | 22986 ft | 424 kts | 306° |
| 2026-02-21 03:07 | 30.69436 | 30.81515 | 23389 ft | 426 kts | 307° |
| 2026-02-21 03:07 | 30.71430 | 30.78956 | 23773 ft | 428 kts | 306° |
| 2026-02-21 03:07 | 30.73439 | 30.76377 | 24112 ft | 430 kts | 306° |
| 2026-02-21 03:07 | 30.75446 | 30.73799 | 24482 ft | 431 kts | 306° |
| 2026-02-21 03:08 | 30.77463 | 30.71207 | 24824 ft | 432 kts | 306° |
| 2026-02-21 03:08 | 30.79477 | 30.68617 | 25179 ft | 433 kts | 306° |
| 2026-02-21 03:08 | 30.81499 | 30.66014 | 25549 ft | 434 kts | 306° |
| 2026-02-21 03:08 | 30.83528 | 30.63400 | 25897 ft | 435 kts | 306° |
| 2026-02-21 03:09 | 30.85560 | 30.60780 | 26252 ft | 437 kts | 306° |
| 2026-02-21 03:09 | 30.87597 | 30.58152 | 26609 ft | 438 kts | 305° |
| 2026-02-21 03:09 | 30.89641 | 30.55512 | 26971 ft | 439 kts | 305° |
| 2026-02-21 03:09 | 30.91667 | 30.52895 | 27337 ft | 441 kts | 305° |
| 2026-02-21 03:10 | 30.93721 | 30.50239 | 27731 ft | 442 kts | 305° |
| 2026-02-21 03:10 | 30.95784 | 30.47570 | 28106 ft | 444 kts | 305° |
| 2026-02-21 03:10 | 30.97855 | 30.44888 | 28485 ft | 446 kts | 305° |
| 2026-02-21 03:10 | 30.99931 | 30.42198 | 28867 ft | 448 kts | 305° |
| 2026-02-21 03:11 | 31.02018 | 30.39494 | 29277 ft | 449 kts | 304° |
| 2026-02-21 03:11 | 31.04112 | 30.36777 | 29713 ft | 450 kts | 304° |
| 2026-02-21 03:11 | 31.06199 | 30.34046 | 30081 ft | 451 kts | 303° |
| 2026-02-21 03:11 | 31.08072 | 30.31132 | 30415 ft | 446 kts | 296° |
| 2026-02-21 03:12 | 31.09574 | 30.27998 | 30788 ft | 439 kts | 289° |
| 2026-02-21 03:12 | 31.10771 | 30.24742 | 31185 ft | 435 kts | 285° |
| 2026-02-21 03:12 | 31.11770 | 30.21455 | 31557 ft | 433 kts | 282° |
| 2026-02-21 03:12 | 31.12678 | 30.18103 | 31918 ft | 432 kts | 281° |
| 2026-02-21 03:13 | 31.13546 | 30.14740 | 32243 ft | 432 kts | 281° |
| 2026-02-21 03:13 | 31.14407 | 30.11384 | 32680 ft | 430 kts | 280° |
| 2026-02-21 03:13 | 31.15273 | 30.08060 | 33237 ft | 426 kts | 281° |
| 2026-02-21 03:13 | 31.16160 | 30.04780 | 33813 ft | 422 kts | 282° |
| 2026-02-21 03:14 | 31.17274 | 30.01601 | 34346 ft | 424 kts | 287° |
| 2026-02-21 03:14 | 31.18718 | 29.98566 | 34710 ft | 431 kts | 294° |
| 2026-02-21 03:14 | 31.20533 | 29.95728 | 34962 ft | 443 kts | 301° |
| 2026-02-21 03:14 | 31.22724 | 29.93182 | 35219 ft | 456 kts | 309° |
| 2026-02-21 03:15 | 31.25325 | 29.90967 | 35543 ft | 470 kts | 317° |
| 2026-02-21 03:15 | 31.28164 | 29.89028 | 35807 ft | 475 kts | 319° |
| 2026-02-21 03:15 | 31.31083 | 29.87184 | 36097 ft | 477 kts | 320° |
| 2026-02-21 03:15 | 31.34031 | 29.85387 | 36408 ft | 477 kts | 321° |
| 2026-02-21 03:16 | 31.36986 | 29.83598 | 36694 ft | 477 kts | 321° |
| 2026-02-21 03:16 | 31.39932 | 29.81804 | 37010 ft | 477 kts | 320° |
| 2026-02-21 03:16 | 31.42834 | 29.80016 | 37249 ft | 478 kts | 320° |
| 2026-02-21 03:16 | 31.45768 | 29.78193 | 37538 ft | 477 kts | 320° |
| 2026-02-21 03:17 | 31.48687 | 29.76370 | 37855 ft | 476 kts | 320° |
| 2026-02-21 03:17 | 31.51610 | 29.74537 | 38156 ft | 475 kts | 320° |
| 2026-02-21 03:17 | 31.54521 | 29.72706 | 38470 ft | 474 kts | 320° |
| 2026-02-21 03:17 | 31.57427 | 29.70874 | 38734 ft | 474 kts | 320° |
| 2026-02-21 03:18 | 31.60339 | 29.69039 | 38954 ft | 474 kts | 320° |
| 2026-02-21 03:18 | 31.63248 | 29.67205 | 39166 ft | 473 kts | 320° |
| 2026-02-21 03:18 | 31.66155 | 29.65373 | 39387 ft | 473 kts | 320° |
| 2026-02-21 03:18 | 31.69012 | 29.63570 | 39594 ft | 472 kts | 320° |
| 2026-02-21 03:19 | 31.71906 | 29.61744 | 39806 ft | 471 kts | 320° |
| 2026-02-21 03:19 | 31.74792 | 29.59920 | 40005 ft | 471 kts | 320° |
| 2026-02-21 03:19 | 31.77683 | 29.58092 | 40103 ft | 471 kts | 320° |
| 2026-02-21 03:20 | 31.83465 | 29.54430 | 40157 ft | 472 kts | 320° |
| 2026-02-21 03:20 | 31.89254 | 29.50759 | 40126 ft | 473 kts | 320° |
| 2026-02-21 03:21 | 31.95045 | 29.47083 | 40117 ft | 473 kts | 320° |
| 2026-02-21 03:21 | 32.00805 | 29.43424 | 40120 ft | 473 kts | 320° |
| 2026-02-21 03:22 | 32.06607 | 29.39738 | 40122 ft | 473 kts | 320° |
| 2026-02-21 03:22 | 32.12405 | 29.36038 | 40121 ft | 473 kts | 320° |
| 2026-02-21 03:23 | 32.18199 | 29.32336 | 40122 ft | 474 kts | 320° |
| 2026-02-21 03:23 | 32.26862 | 29.26799 | 40118 ft | 474 kts | 320° |
| 2026-02-21 03:24 | 32.32669 | 29.23071 | 40130 ft | 474 kts | 320° |
| 2026-02-21 03:24 | 32.38472 | 29.19339 | 40116 ft | 475 kts | 320° |
| 2026-02-21 03:25 | 32.44282 | 29.15602 | 40117 ft | 475 kts | 320° |
| 2026-02-21 03:25 | 32.50057 | 29.11882 | 40114 ft | 475 kts | 320° |
| 2026-02-21 03:26 | 32.55867 | 29.08134 | 40118 ft | 475 kts | 320° |
| 2026-02-21 03:26 | 32.61673 | 29.04383 | 40110 ft | 475 kts | 320° |
| 2026-02-21 03:27 | 32.67440 | 29.00651 | 40137 ft | 475 kts | 320° |
| 2026-02-21 03:27 | 32.73244 | 28.96888 | 40116 ft | 475 kts | 320° |
| 2026-02-21 03:28 | 32.79055 | 28.93117 | 40117 ft | 475 kts | 320° |
| 2026-02-21 03:28 | 32.84863 | 28.89342 | 40116 ft | 475 kts | 320° |
| 2026-02-21 03:29 | 32.90668 | 28.85563 | 40113 ft | 475 kts | 320° |
| 2026-02-21 03:29 | 32.96468 | 28.81782 | 40136 ft | 475 kts | 320° |
| 2026-02-21 03:30 | 33.02273 | 28.77991 | 40113 ft | 476 kts | 320° |
| 2026-02-21 03:30 | 33.08082 | 28.74192 | 40113 ft | 476 kts | 320° |
| 2026-02-21 03:31 | 33.13890 | 28.70389 | 40110 ft | 476 kts | 320° |
| 2026-02-21 03:31 | 33.19662 | 28.66603 | 40110 ft | 476 kts | 320° |
| 2026-02-21 03:32 | 33.25481 | 28.62780 | 40130 ft | 476 kts | 320° |
| 2026-02-21 03:32 | 33.31290 | 28.58957 | 40111 ft | 477 kts | 320° |
| 2026-02-21 03:33 | 33.37069 | 28.55150 | 40108 ft | 477 kts | 320° |
| 2026-02-21 03:33 | 33.42877 | 28.51318 | 40108 ft | 477 kts | 320° |
| 2026-02-21 03:34 | 33.48695 | 28.47472 | 40110 ft | 477 kts | 320° |
| 2026-02-21 03:34 | 33.54514 | 28.43619 | 40123 ft | 477 kts | 320° |
| 2026-02-21 03:35 | 33.60340 | 28.39754 | 40111 ft | 479 kts | 320° |
| 2026-02-21 03:35 | 33.66147 | 28.35898 | 40114 ft | 479 kts | 320° |
| 2026-02-21 03:36 | 33.71991 | 28.32012 | 40109 ft | 481 kts | 320° |
| 2026-02-21 03:36 | 33.77841 | 28.28116 | 40107 ft | 481 kts | 320° |
| 2026-02-21 03:37 | 33.83693 | 28.24204 | 40110 ft | 481 kts | 320° |
| 2026-02-21 03:37 | 33.89543 | 28.20252 | 40106 ft | 481 kts | 320° |
| 2026-02-21 03:38 | 33.95347 | 28.16320 | 40103 ft | 481 kts | 320° |
| 2026-02-21 03:38 | 34.01187 | 28.12363 | 40103 ft | 481 kts | 320° |
| 2026-02-21 03:39 | 34.09958 | 28.06412 | 40126 ft | 482 kts | 320° |
| 2026-02-21 03:40 | 34.15817 | 28.02428 | 40099 ft | 483 kts | 320° |
| 2026-02-21 03:40 | 34.21639 | 27.98464 | 40099 ft | 484 kts | 320° |
| 2026-02-21 03:41 | 34.27502 | 27.94467 | 40098 ft | 484 kts | 320° |
| 2026-02-21 03:41 | 34.33373 | 27.90458 | 40097 ft | 484 kts | 320° |
| 2026-02-21 03:42 | 34.39242 | 27.86442 | 40097 ft | 484 kts | 320° |
| 2026-02-21 03:42 | 34.45091 | 27.82433 | 40096 ft | 485 kts | 320° |
| 2026-02-21 03:43 | 34.50969 | 27.78399 | 40096 ft | 485 kts | 320° |
| 2026-02-21 03:43 | 34.56857 | 27.74355 | 40096 ft | 485 kts | 320° |
| 2026-02-21 03:44 | 34.62733 | 27.70293 | 40091 ft | 485 kts | 320° |
| 2026-02-21 03:44 | 34.68560 | 27.66251 | 40089 ft | 486 kts | 320° |
| 2026-02-21 03:45 | 34.74438 | 27.62172 | 40091 ft | 486 kts | 320° |
| 2026-02-21 03:45 | 34.80313 | 27.58091 | 40083 ft | 486 kts | 320° |
| 2026-02-21 03:46 | 34.86186 | 27.54006 | 40086 ft | 486 kts | 320° |
| 2026-02-21 03:46 | 34.92056 | 27.49916 | 40104 ft | 486 kts | 320° |
| 2026-02-21 03:47 | 34.97888 | 27.45845 | 40093 ft | 485 kts | 320° |
| 2026-02-21 03:47 | 35.02787 | 27.42421 | 40081 ft | 484 kts | 320° |
| 2026-02-21 03:48 | 35.08604 | 27.38349 | 40082 ft | 484 kts | 320° |
| 2026-02-21 03:48 | 35.14444 | 27.34252 | 40080 ft | 484 kts | 320° |
| 2026-02-21 03:49 | 35.20285 | 27.30149 | 40079 ft | 484 kts | 320° |
| 2026-02-21 03:49 | 35.26088 | 27.26065 | 40082 ft | 484 kts | 320° |
| 2026-02-21 03:50 | 35.31919 | 27.21955 | 40067 ft | 484 kts | 320° |
| 2026-02-21 03:50 | 35.37752 | 27.17837 | 40080 ft | 484 kts | 320° |
| 2026-02-21 03:51 | 35.43698 | 27.13900 | 40080 ft | 489 kts | 324° |
| 2026-02-21 03:51 | 35.49872 | 27.10342 | 40074 ft | 490 kts | 326° |
| 2026-02-21 03:52 | 35.56089 | 27.06855 | 40075 ft | 491 kts | 326° |
| 2026-02-21 03:52 | 35.62301 | 27.03373 | 40074 ft | 490 kts | 326° |
| 2026-02-21 03:53 | 35.68464 | 26.99901 | 40069 ft | 490 kts | 326° |
| 2026-02-21 03:53 | 35.74668 | 26.96392 | 40069 ft | 491 kts | 326° |
| 2026-02-21 03:54 | 35.80878 | 26.92871 | 40064 ft | 491 kts | 326° |
| 2026-02-21 03:54 | 35.87104 | 26.89339 | 40061 ft | 491 kts | 326° |
| 2026-02-21 03:55 | 35.93269 | 26.85818 | 40060 ft | 492 kts | 326° |
| 2026-02-21 03:55 | 35.99499 | 26.82236 | 40070 ft | 495 kts | 326° |
| 2026-02-21 03:56 | 36.05759 | 26.78638 | 40054 ft | 496 kts | 326° |
| 2026-02-21 03:56 | 36.12031 | 26.75034 | 40054 ft | 497 kts | 326° |
| 2026-02-21 03:57 | 36.18308 | 26.71421 | 40050 ft | 497 kts | 326° |
| 2026-02-21 03:57 | 36.24541 | 26.67825 | 40073 ft | 497 kts | 326° |
| 2026-02-21 03:58 | 36.30825 | 26.64196 | 40055 ft | 498 kts | 326° |
| 2026-02-21 03:58 | 36.37108 | 26.60556 | 40055 ft | 498 kts | 326° |
| 2026-02-21 03:59 | 36.43397 | 26.56903 | 40057 ft | 498 kts | 326° |
| 2026-02-21 03:59 | 36.49633 | 26.53277 | 40082 ft | 497 kts | 326° |
| 2026-02-21 04:00 | 36.55907 | 26.49627 | 40060 ft | 497 kts | 326° |
| 2026-02-21 04:00 | 36.62161 | 26.45973 | 40065 ft | 497 kts | 326° |
| 2026-02-21 04:01 | 36.68416 | 26.42305 | 40048 ft | 497 kts | 326° |
| 2026-02-21 04:01 | 36.74674 | 26.38631 | 40080 ft | 497 kts | 326° |
| 2026-02-21 04:02 | 36.80925 | 26.34955 | 40048 ft | 496 kts | 326° |
| 2026-02-21 04:02 | 36.87171 | 26.31278 | 40048 ft | 496 kts | 326° |
| 2026-02-21 04:03 | 36.93411 | 26.27598 | 40047 ft | 496 kts | 326° |
| 2026-02-21 04:03 | 36.99609 | 26.23937 | 40068 ft | 495 kts | 326° |
| 2026-02-21 04:04 | 37.05806 | 26.20179 | 40035 ft | 494 kts | 326° |
| 2026-02-21 04:04 | 37.11974 | 26.16386 | 40040 ft | 494 kts | 326° |
| 2026-02-21 04:05 | 37.18152 | 26.12590 | 40029 ft | 494 kts | 326° |
| 2026-02-21 04:05 | 37.24340 | 26.08794 | 40031 ft | 494 kts | 326° |
| 2026-02-21 04:06 | 37.30479 | 26.05024 | 40031 ft | 495 kts | 326° |
| 2026-02-21 04:06 | 37.36670 | 26.01218 | 40022 ft | 495 kts | 326° |
| 2026-02-21 04:07 | 37.42856 | 25.97408 | 40024 ft | 495 kts | 326° |
| 2026-02-21 04:07 | 37.49056 | 25.93581 | 40038 ft | 495 kts | 326° |
| 2026-02-21 04:08 | 37.55233 | 25.89761 | 40024 ft | 493 kts | 326° |
| 2026-02-21 04:08 | 37.61351 | 25.85975 | 40015 ft | 493 kts | 326° |
| 2026-02-21 04:09 | 37.67508 | 25.82152 | 40013 ft | 493 kts | 326° |
| 2026-02-21 04:09 | 37.73666 | 25.78318 | 40013 ft | 493 kts | 326° |
| 2026-02-21 04:10 | 37.79819 | 25.74487 | 40006 ft | 493 kts | 326° |
| 2026-02-21 04:10 | 37.85980 | 25.70640 | 40007 ft | 493 kts | 326° |
| 2026-02-21 04:11 | 37.92088 | 25.66816 | 40004 ft | 493 kts | 326° |
| 2026-02-21 04:11 | 37.98238 | 25.62959 | 40016 ft | 493 kts | 326° |
| 2026-02-21 04:12 | 38.04388 | 25.59093 | 39994 ft | 494 kts | 327° |
| 2026-02-21 04:12 | 38.10527 | 25.55227 | 40008 ft | 495 kts | 327° |
| 2026-02-21 04:13 | 38.16700 | 25.51336 | 40001 ft | 495 kts | 327° |
| 2026-02-21 04:13 | 38.22875 | 25.47436 | 39987 ft | 495 kts | 326° |
| 2026-02-21 04:14 | 38.29044 | 25.43529 | 39995 ft | 496 kts | 327° |
| 2026-02-21 04:14 | 38.35234 | 25.39602 | 39993 ft | 497 kts | 327° |
| 2026-02-21 04:15 | 38.41393 | 25.35689 | 39991 ft | 497 kts | 327° |
| 2026-02-21 04:15 | 38.47586 | 25.31746 | 40002 ft | 497 kts | 327° |
| 2026-02-21 04:16 | 38.53789 | 25.27787 | 39991 ft | 498 kts | 327° |
| 2026-02-21 04:16 | 38.59993 | 25.23822 | 39988 ft | 499 kts | 327° |
| 2026-02-21 04:17 | 38.66203 | 25.19847 | 39988 ft | 499 kts | 327° |
| 2026-02-21 04:17 | 38.72422 | 25.15857 | 39988 ft | 499 kts | 327° |
| 2026-02-21 04:18 | 38.76533 | 25.13214 | 40002 ft | 499 kts | 327° |
| 2026-02-21 04:18 | 38.77583 | 25.12538 | 39993 ft | 499 kts | 327° |
| 2026-02-21 04:19 | 38.91026 | 25.03872 | 39982 ft | 500 kts | 327° |
| 2026-02-21 04:19 | 38.97238 | 24.99854 | 39990 ft | 500 kts | 328° |
| 2026-02-21 04:20 | 39.03450 | 24.95827 | 39979 ft | 500 kts | 328° |
| 2026-02-21 04:20 | 39.09677 | 24.91785 | 39977 ft | 500 kts | 328° |
| 2026-02-21 04:21 | 39.15893 | 24.87853 | 39977 ft | 501 kts | 329° |
| 2026-02-21 04:21 | 39.22193 | 24.83984 | 39974 ft | 501 kts | 329° |
| 2026-02-21 04:22 | 39.28487 | 24.80106 | 39974 ft | 501 kts | 329° |
| 2026-02-21 04:22 | 39.34768 | 24.76208 | 39974 ft | 501 kts | 329° |
| 2026-02-21 04:23 | 39.41042 | 24.72296 | 39974 ft | 501 kts | 329° |
| 2026-02-21 04:23 | 39.47321 | 24.68370 | 39974 ft | 501 kts | 329° |
| 2026-02-21 04:24 | 39.53589 | 24.64443 | 39959 ft | 500 kts | 329° |
| 2026-02-21 04:24 | 39.59819 | 24.60535 | 39978 ft | 500 kts | 329° |
| 2026-02-21 04:25 | 39.66085 | 24.56595 | 39973 ft | 500 kts | 329° |
| 2026-02-21 04:25 | 39.72360 | 24.52642 | 39972 ft | 500 kts | 329° |
| 2026-02-21 04:26 | 39.78616 | 24.48692 | 39974 ft | 500 kts | 329° |
| 2026-02-21 04:26 | 39.84829 | 24.44763 | 39971 ft | 500 kts | 329° |
| 2026-02-21 04:27 | 39.91098 | 24.40790 | 39971 ft | 500 kts | 329° |
| 2026-02-21 04:27 | 39.97357 | 24.36814 | 39997 ft | 499 kts | 330° |
| 2026-02-21 04:28 | 40.03592 | 24.32846 | 39977 ft | 498 kts | 330° |
| 2026-02-21 04:28 | 40.09780 | 24.28900 | 39976 ft | 497 kts | 330° |
| 2026-02-21 04:29 | 40.16001 | 24.24924 | 39982 ft | 497 kts | 330° |
| 2026-02-21 04:29 | 40.22220 | 24.20942 | 39981 ft | 497 kts | 330° |
| 2026-02-21 04:30 | 40.28446 | 24.16947 | 39985 ft | 497 kts | 330° |
| 2026-02-21 04:30 | 40.34662 | 24.12950 | 39987 ft | 498 kts | 330° |
| 2026-02-21 04:31 | 40.40842 | 24.08969 | 39985 ft | 498 kts | 330° |
| 2026-02-21 04:31 | 40.47061 | 24.04953 | 39994 ft | 498 kts | 330° |
| 2026-02-21 04:32 | 40.53285 | 24.00925 | 39983 ft | 498 kts | 330° |
| 2026-02-21 04:32 | 40.59512 | 23.96889 | 39989 ft | 499 kts | 330° |
| 2026-02-21 04:33 | 40.65762 | 23.92913 | 39992 ft | 499 kts | 331° |
| 2026-02-21 04:33 | 40.72035 | 23.88995 | 39984 ft | 499 kts | 331° |
| 2026-02-21 04:34 | 40.78305 | 23.85068 | 39985 ft | 499 kts | 331° |
| 2026-02-21 04:34 | 40.84576 | 23.81117 | 39991 ft | 499 kts | 331° |
| 2026-02-21 04:35 | 40.89777 | 23.77827 | 39993 ft | 499 kts | 330° |
| 2026-02-21 04:35 | 40.97056 | 23.73213 | 40001 ft | 498 kts | 331° |
| 2026-02-21 04:36 | 41.03293 | 23.69252 | 39995 ft | 496 kts | 331° |
| 2026-02-21 04:36 | 41.08474 | 23.65955 | 39996 ft | 496 kts | 331° |
| 2026-02-21 04:37 | 41.14691 | 23.61991 | 40011 ft | 496 kts | 331° |
| 2026-02-21 04:37 | 41.20913 | 23.58014 | 40001 ft | 496 kts | 331° |
| 2026-02-21 04:38 | 41.27139 | 23.54031 | 40003 ft | 496 kts | 331° |
| 2026-02-21 04:38 | 41.33320 | 23.50056 | 40008 ft | 496 kts | 330° |
| 2026-02-21 04:39 | 41.39531 | 23.46051 | 40010 ft | 496 kts | 330° |
| 2026-02-21 04:39 | 41.45746 | 23.42027 | 40015 ft | 496 kts | 330° |
| 2026-02-21 04:40 | 41.51941 | 23.37980 | 40009 ft | 495 kts | 330° |
| 2026-02-21 04:40 | 41.58132 | 23.33928 | 40015 ft | 495 kts | 330° |
| 2026-02-21 04:41 | 41.64324 | 23.29870 | 40021 ft | 495 kts | 330° |
| 2026-02-21 04:41 | 41.70472 | 23.25837 | 40020 ft | 495 kts | 330° |
| 2026-02-21 04:42 | 41.76657 | 23.21770 | 40028 ft | 495 kts | 330° |
| 2026-02-21 04:42 | 41.82838 | 23.17698 | 40042 ft | 495 kts | 331° |
| 2026-02-21 04:43 | 41.89017 | 23.13616 | 40035 ft | 495 kts | 331° |
| 2026-02-21 04:43 | 41.95168 | 23.09545 | 40055 ft | 494 kts | 331° |
| 2026-02-21 04:44 | 42.01330 | 23.05459 | 40056 ft | 493 kts | 330° |
| 2026-02-21 04:44 | 42.07487 | 23.01365 | 40057 ft | 493 kts | 331° |
| 2026-02-21 04:45 | 42.13660 | 22.97253 | 40071 ft | 494 kts | 331° |
| 2026-02-21 04:45 | 42.19821 | 22.93141 | 40073 ft | 494 kts | 331° |
| 2026-02-21 04:46 | 42.25943 | 22.89046 | 40076 ft | 494 kts | 331° |
| 2026-02-21 04:46 | 42.32120 | 22.84905 | 40080 ft | 494 kts | 331° |
| 2026-02-21 04:47 | 42.41361 | 22.78691 | 40093 ft | 494 kts | 331° |
| 2026-02-21 04:47 | 42.47481 | 22.74566 | 40104 ft | 493 kts | 331° |
| 2026-02-21 04:48 | 42.53624 | 22.70415 | 40104 ft | 493 kts | 331° |
| 2026-02-21 04:48 | 42.59764 | 22.66258 | 40114 ft | 493 kts | 331° |
| 2026-02-21 04:49 | 42.65896 | 22.62102 | 40113 ft | 493 kts | 331° |
| 2026-02-21 04:49 | 42.72044 | 22.57915 | 40132 ft | 493 kts | 331° |
| 2026-02-21 04:50 | 42.78134 | 22.53761 | 40129 ft | 493 kts | 331° |
| 2026-02-21 04:50 | 42.84230 | 22.49479 | 40135 ft | 491 kts | 326° |
| 2026-02-21 04:51 | 42.89968 | 22.44463 | 40159 ft | 489 kts | 324° |
| 2026-02-21 04:51 | 42.95620 | 22.39285 | 40157 ft | 489 kts | 323° |
| 2026-02-21 04:52 | 43.01231 | 22.34085 | 40172 ft | 490 kts | 323° |
| 2026-02-21 04:52 | 43.06874 | 22.28857 | 40177 ft | 490 kts | 323° |
| 2026-02-21 04:53 | 43.12516 | 22.23633 | 40192 ft | 488 kts | 323° |
| 2026-02-21 04:53 | 43.18146 | 22.18412 | 40205 ft | 488 kts | 323° |
| 2026-02-21 04:54 | 43.23781 | 22.13173 | 40210 ft | 489 kts | 323° |
| 2026-02-21 04:54 | 43.29407 | 22.07931 | 40213 ft | 489 kts | 323° |
| 2026-02-21 04:55 | 43.35032 | 22.02679 | 40211 ft | 488 kts | 323° |
| 2026-02-21 04:55 | 43.40643 | 21.97428 | 40212 ft | 488 kts | 323° |
| 2026-02-21 04:56 | 43.46258 | 21.92160 | 40215 ft | 489 kts | 323° |
| 2026-02-21 04:56 | 43.51839 | 21.86912 | 40220 ft | 489 kts | 323° |
| 2026-02-21 04:57 | 43.57458 | 21.81616 | 40230 ft | 489 kts | 323° |
| 2026-02-21 04:57 | 43.63074 | 21.76310 | 40246 ft | 489 kts | 323° |
| 2026-02-21 04:58 | 43.68695 | 21.70989 | 40256 ft | 489 kts | 323° |
| 2026-02-21 04:58 | 43.74273 | 21.65694 | 40260 ft | 489 kts | 323° |
| 2026-02-21 04:59 | 43.79886 | 21.60355 | 40261 ft | 488 kts | 323° |
| 2026-02-21 04:59 | 43.85487 | 21.55016 | 40262 ft | 488 kts | 323° |
| 2026-02-21 05:00 | 43.91088 | 21.49664 | 40270 ft | 488 kts | 323° |
| 2026-02-21 05:00 | 43.96677 | 21.44309 | 40274 ft | 488 kts | 323° |
| 2026-02-21 05:01 | 44.02273 | 21.38938 | 40270 ft | 488 kts | 323° |
| 2026-02-21 05:01 | 44.07824 | 21.33596 | 40271 ft | 488 kts | 323° |
| 2026-02-21 05:02 | 44.13422 | 21.28196 | 40270 ft | 488 kts | 323° |
| 2026-02-21 05:02 | 44.19003 | 21.22801 | 40273 ft | 488 kts | 323° |
| 2026-02-21 05:03 | 44.24575 | 21.17401 | 40273 ft | 487 kts | 323° |
| 2026-02-21 05:03 | 44.30149 | 21.11986 | 40276 ft | 487 kts | 323° |
| 2026-02-21 05:04 | 44.35718 | 21.06564 | 40276 ft | 487 kts | 323° |
| 2026-02-21 05:04 | 44.41246 | 21.01168 | 40279 ft | 487 kts | 323° |
| 2026-02-21 05:05 | 44.46799 | 20.95736 | 40278 ft | 486 kts | 323° |
| 2026-02-21 05:05 | 44.52344 | 20.90299 | 40279 ft | 486 kts | 323° |
| 2026-02-21 05:06 | 44.57883 | 20.84855 | 40284 ft | 486 kts | 323° |
| 2026-02-21 05:06 | 44.63423 | 20.79396 | 40287 ft | 486 kts | 323° |
| 2026-02-21 05:07 | 44.68942 | 20.73946 | 40281 ft | 484 kts | 323° |
| 2026-02-21 05:07 | 44.74451 | 20.68492 | 40281 ft | 484 kts | 323° |
| 2026-02-21 05:08 | 44.79921 | 20.63065 | 40282 ft | 484 kts | 323° |
| 2026-02-21 05:08 | 44.85423 | 20.57591 | 40276 ft | 484 kts | 323° |
| 2026-02-21 05:09 | 44.90923 | 20.52107 | 40269 ft | 483 kts | 323° |
| 2026-02-21 05:09 | 44.96410 | 20.46624 | 40268 ft | 482 kts | 323° |
| 2026-02-21 05:10 | 45.01889 | 20.41135 | 40279 ft | 482 kts | 323° |
| 2026-02-21 05:10 | 45.07324 | 20.35677 | 40279 ft | 482 kts | 323° |
| 2026-02-21 05:11 | 45.12800 | 20.30164 | 40273 ft | 480 kts | 323° |
| 2026-02-21 05:11 | 45.18245 | 20.24670 | 40268 ft | 480 kts | 323° |
| 2026-02-21 05:12 | 45.23653 | 20.19201 | 40271 ft | 480 kts | 323° |
| 2026-02-21 05:12 | 45.29093 | 20.13685 | 40271 ft | 480 kts | 323° |
| 2026-02-21 05:13 | 45.34531 | 20.08156 | 40269 ft | 479 kts | 323° |
| 2026-02-21 05:13 | 45.39908 | 20.02678 | 40273 ft | 478 kts | 323° |
| 2026-02-21 05:14 | 45.45316 | 19.97157 | 40268 ft | 477 kts | 323° |
| 2026-02-21 05:14 | 45.50710 | 19.91636 | 40268 ft | 477 kts | 323° |
| 2026-02-21 05:15 | 45.56100 | 19.86105 | 40279 ft | 477 kts | 323° |
| 2026-02-21 05:15 | 45.61483 | 19.80567 | 40272 ft | 475 kts | 323° |
| 2026-02-21 05:16 | 45.66843 | 19.75041 | 40275 ft | 475 kts | 323° |
| 2026-02-21 05:16 | 45.72171 | 19.69534 | 40273 ft | 475 kts | 323° |
| 2026-02-21 05:17 | 45.77535 | 19.63976 | 40273 ft | 475 kts | 323° |
| 2026-02-21 05:17 | 45.82888 | 19.58417 | 40273 ft | 475 kts | 323° |
| 2026-02-21 05:18 | 45.88238 | 19.52846 | 40276 ft | 475 kts | 323° |
| 2026-02-21 05:18 | 45.93586 | 19.47265 | 40279 ft | 475 kts | 323° |
| 2026-02-21 05:19 | 45.98900 | 19.41706 | 40276 ft | 475 kts | 323° |
| 2026-02-21 05:19 | 46.04248 | 19.36097 | 40281 ft | 475 kts | 323° |
| 2026-02-21 05:20 | 46.09464 | 19.30240 | 40278 ft | 474 kts | 319° |
| 2026-02-21 05:20 | 46.14474 | 19.24047 | 40283 ft | 474 kts | 319° |
| 2026-02-21 05:21 | 46.18635 | 19.18889 | 40284 ft | 474 kts | 319° |
| 2026-02-21 05:21 | 46.24488 | 19.11735 | 40268 ft | 474 kts | 319° |
| 2026-02-21 05:22 | 46.29544 | 19.05594 | 40278 ft | 474 kts | 320° |
| 2026-02-21 05:22 | 46.33739 | 19.00494 | 40280 ft | 474 kts | 319° |
| 2026-02-21 05:23 | 46.38789 | 18.94339 | 40278 ft | 474 kts | 319° |
| 2026-02-21 05:23 | 46.43833 | 18.88171 | 40271 ft | 474 kts | 319° |
| 2026-02-21 05:24 | 46.48844 | 18.82028 | 40282 ft | 474 kts | 320° |
| 2026-02-21 05:24 | 46.53881 | 18.75836 | 40282 ft | 473 kts | 319° |
| 2026-02-21 05:25 | 46.58899 | 18.69653 | 40264 ft | 473 kts | 319° |
| 2026-02-21 05:25 | 46.63885 | 18.63494 | 40277 ft | 473 kts | 319° |
| 2026-02-21 05:26 | 46.68901 | 18.57284 | 40279 ft | 473 kts | 319° |
| 2026-02-21 05:27 | 46.76395 | 18.47972 | 40279 ft | 471 kts | 319° |
| 2026-02-21 05:27 | 46.81372 | 18.41770 | 40276 ft | 470 kts | 319° |
| 2026-02-21 05:28 | 46.86359 | 18.35540 | 40275 ft | 470 kts | 319° |
| 2026-02-21 05:28 | 46.91296 | 18.29357 | 40259 ft | 470 kts | 319° |
| 2026-02-21 05:29 | 46.96260 | 18.23123 | 40255 ft | 469 kts | 319° |
| 2026-02-21 05:29 | 47.01215 | 18.16886 | 40279 ft | 469 kts | 319° |
| 2026-02-21 05:30 | 47.06166 | 18.10637 | 40263 ft | 469 kts | 319° |
| 2026-02-21 05:30 | 47.11116 | 18.04374 | 40282 ft | 469 kts | 319° |
| 2026-02-21 05:31 | 47.16054 | 17.98110 | 40264 ft | 469 kts | 319° |
| 2026-02-21 05:31 | 47.20988 | 17.91836 | 40264 ft | 468 kts | 319° |
| 2026-02-21 05:32 | 47.25912 | 17.85558 | 40269 ft | 468 kts | 319° |
| 2026-02-21 05:32 | 47.30836 | 17.79262 | 40282 ft | 468 kts | 319° |
| 2026-02-21 05:33 | 47.35719 | 17.73004 | 40286 ft | 468 kts | 319° |
| 2026-02-21 05:33 | 47.40631 | 17.66695 | 40289 ft | 467 kts | 319° |
| 2026-02-21 05:34 | 47.45525 | 17.60390 | 40289 ft | 466 kts | 319° |
| 2026-02-21 05:34 | 47.50415 | 17.54075 | 40287 ft | 466 kts | 318° |
| 2026-02-21 05:35 | 47.55276 | 17.47781 | 40288 ft | 466 kts | 318° |
| 2026-02-21 05:35 | 47.60152 | 17.41451 | 40277 ft | 466 kts | 318° |
| 2026-02-21 05:36 | 47.65016 | 17.35122 | 40278 ft | 464 kts | 318° |
| 2026-02-21 05:36 | 47.69869 | 17.28790 | 40272 ft | 464 kts | 318° |
| 2026-02-21 05:37 | 47.74715 | 17.22449 | 40272 ft | 464 kts | 318° |
| 2026-02-21 05:37 | 47.79557 | 17.16099 | 40277 ft | 464 kts | 318° |
| 2026-02-21 05:38 | 47.84616 | 17.10112 | 40269 ft | 465 kts | 324° |
| 2026-02-21 05:38 | 47.89980 | 17.04849 | 40267 ft | 464 kts | 326° |
| 2026-02-21 05:39 | 47.95439 | 16.99670 | 40269 ft | 464 kts | 326° |
| 2026-02-21 05:39 | 48.00900 | 16.94493 | 40262 ft | 465 kts | 326° |
| 2026-02-21 05:40 | 48.06350 | 16.89296 | 40270 ft | 465 kts | 326° |
| 2026-02-21 05:40 | 48.11801 | 16.84070 | 40264 ft | 465 kts | 326° |
| 2026-02-21 05:41 | 48.17250 | 16.78829 | 40264 ft | 465 kts | 326° |
| 2026-02-21 05:41 | 48.22665 | 16.73608 | 40264 ft | 465 kts | 326° |
| 2026-02-21 05:42 | 48.28105 | 16.68351 | 40264 ft | 465 kts | 326° |
| 2026-02-21 05:42 | 48.33558 | 16.63068 | 40262 ft | 465 kts | 326° |
| 2026-02-21 05:43 | 48.38995 | 16.57786 | 40254 ft | 466 kts | 326° |
| 2026-02-21 05:43 | 48.44438 | 16.52486 | 40248 ft | 466 kts | 326° |
| 2026-02-21 05:44 | 48.49849 | 16.47203 | 40245 ft | 466 kts | 326° |
| 2026-02-21 05:44 | 48.55295 | 16.41871 | 40241 ft | 466 kts | 326° |
| 2026-02-21 05:45 | 48.60738 | 16.36528 | 40245 ft | 466 kts | 325° |
| 2026-02-21 05:45 | 48.66183 | 16.31170 | 40242 ft | 467 kts | 325° |
| 2026-02-21 05:46 | 48.71628 | 16.25798 | 40240 ft | 468 kts | 325° |
| 2026-02-21 05:46 | 48.77155 | 16.20683 | 40235 ft | 470 kts | 332° |
| 2026-02-21 05:47 | 48.83168 | 16.16732 | 40240 ft | 471 kts | 336° |
| 2026-02-21 05:47 | 48.89269 | 16.13052 | 40217 ft | 472 kts | 336° |
| 2026-02-21 05:48 | 48.95385 | 16.09410 | 40206 ft | 472 kts | 336° |
| 2026-02-21 05:48 | 49.01457 | 16.05763 | 40196 ft | 472 kts | 336° |
| 2026-02-21 05:49 | 49.07558 | 16.02072 | 40197 ft | 471 kts | 336° |
| 2026-02-21 05:49 | 49.13656 | 15.98364 | 40186 ft | 472 kts | 336° |
| 2026-02-21 05:50 | 49.19752 | 15.94646 | 40188 ft | 472 kts | 336° |
| 2026-02-21 05:50 | 49.25859 | 15.90913 | 40215 ft | 472 kts | 336° |
| 2026-02-21 05:51 | 49.31959 | 15.87176 | 40215 ft | 472 kts | 336° |
| 2026-02-21 05:51 | 49.38026 | 15.83449 | 40209 ft | 472 kts | 335° |
| 2026-02-21 05:52 | 49.44120 | 15.79695 | 40205 ft | 471 kts | 335° |
| 2026-02-21 05:52 | 49.52790 | 15.72726 | 40192 ft | 467 kts | 328° |
| 2026-02-21 05:53 | 49.58430 | 15.67754 | 40199 ft | 467 kts | 327° |
| 2026-02-21 05:53 | 49.64068 | 15.62739 | 40183 ft | 467 kts | 327° |
| 2026-02-21 05:54 | 49.69673 | 15.57756 | 40181 ft | 468 kts | 327° |
| 2026-02-21 05:54 | 49.75313 | 15.52741 | 40174 ft | 468 kts | 327° |
| 2026-02-21 05:55 | 49.80950 | 15.47720 | 40168 ft | 466 kts | 327° |
| 2026-02-21 05:55 | 49.86578 | 15.42692 | 40164 ft | 466 kts | 327° |
| 2026-02-21 05:56 | 49.92174 | 15.37678 | 40161 ft | 467 kts | 327° |
| 2026-02-21 05:56 | 49.97812 | 15.32612 | 40154 ft | 467 kts | 327° |
| 2026-02-21 05:57 | 50.03443 | 15.27540 | 40157 ft | 467 kts | 327° |
| 2026-02-21 05:57 | 50.09069 | 15.22459 | 40161 ft | 467 kts | 327° |
| 2026-02-21 05:58 | 50.14642 | 15.17412 | 40158 ft | 466 kts | 327° |
| 2026-02-21 05:58 | 50.20242 | 15.12325 | 40157 ft | 466 kts | 327° |
| 2026-02-21 05:59 | 50.25845 | 15.07222 | 40156 ft | 466 kts | 327° |
| 2026-02-21 05:59 | 50.31443 | 15.02109 | 40151 ft | 466 kts | 327° |
| 2026-02-21 06:00 | 50.37034 | 14.96989 | 40169 ft | 465 kts | 327° |
| 2026-02-21 06:00 | 50.42624 | 14.91856 | 40148 ft | 466 kts | 326° |
| 2026-02-21 06:01 | 50.48370 | 14.87114 | 40144 ft | 470 kts | 335° |
| 2026-02-21 06:01 | 50.54626 | 14.84214 | 40146 ft | 473 kts | 342° |
| 2026-02-21 06:02 | 50.61090 | 14.81828 | 40138 ft | 474 kts | 343° |
| 2026-02-21 06:02 | 50.67491 | 14.79563 | 40129 ft | 474 kts | 343° |
| 2026-02-21 06:03 | 50.70701 | 14.78417 | 39899 ft | 473 kts | 343° |
| 2026-02-21 06:03 | 50.73908 | 14.77254 | 39608 ft | 471 kts | 343° |
| 2026-02-21 06:03 | 50.77098 | 14.76087 | 39092 ft | 469 kts | 343° |
| 2026-02-21 06:03 | 50.80281 | 14.74915 | 38407 ft | 470 kts | 343° |
| 2026-02-21 06:04 | 50.83466 | 14.73738 | 37721 ft | 469 kts | 343° |
| 2026-02-21 06:04 | 50.86645 | 14.72563 | 37069 ft | 468 kts | 343° |
| 2026-02-21 06:04 | 50.89813 | 14.71390 | 36432 ft | 468 kts | 342° |
| 2026-02-21 06:04 | 50.92989 | 14.70212 | 35755 ft | 469 kts | 342° |
| 2026-02-21 06:05 | 50.96172 | 14.69022 | 35071 ft | 471 kts | 342° |
| 2026-02-21 06:05 | 50.99366 | 14.67767 | 34280 ft | 474 kts | 341° |
| 2026-02-21 06:05 | 51.02570 | 14.66467 | 33404 ft | 477 kts | 341° |
| 2026-02-21 06:05 | 51.05746 | 14.65166 | 32598 ft | 478 kts | 341° |
| 2026-02-21 06:06 | 51.08976 | 14.63843 | 31762 ft | 480 kts | 341° |
| 2026-02-21 06:06 | 51.12221 | 14.62519 | 30882 ft | 482 kts | 341° |
| 2026-02-21 06:06 | 51.15483 | 14.61194 | 29996 ft | 486 kts | 341° |
| 2026-02-21 06:06 | 51.18762 | 14.59866 | 29307 ft | 482 kts | 341° |
| 2026-02-21 06:07 | 51.21995 | 14.58562 | 28701 ft | 477 kts | 341° |
| 2026-02-21 06:07 | 51.25198 | 14.57273 | 28096 ft | 472 kts | 341° |
| 2026-02-21 06:07 | 51.28367 | 14.55993 | 27488 ft | 468 kts | 341° |
| 2026-02-21 06:07 | 51.31509 | 14.54714 | 26892 ft | 463 kts | 341° |
| 2026-02-21 06:08 | 51.34628 | 14.53440 | 26285 ft | 459 kts | 341° |
| 2026-02-21 06:08 | 51.37737 | 14.52318 | 25710 ft | 458 kts | 347° |
| 2026-02-21 06:08 | 51.40893 | 14.51673 | 25118 ft | 456 kts | 349° |
| 2026-02-21 06:08 | 51.43995 | 14.51145 | 24544 ft | 453 kts | 350° |
| 2026-02-21 06:09 | 51.47126 | 14.50643 | 23946 ft | 451 kts | 351° |
| 2026-02-21 06:09 | 51.50243 | 14.50154 | 23310 ft | 448 kts | 351° |
| 2026-02-21 06:09 | 51.53333 | 14.49674 | 22689 ft | 443 kts | 351° |
| 2026-02-21 06:09 | 51.56390 | 14.49201 | 22105 ft | 438 kts | 351° |
| 2026-02-21 06:10 | 51.59414 | 14.48733 | 21515 ft | 434 kts | 351° |
| 2026-02-21 06:10 | 51.62407 | 14.48270 | 20933 ft | 430 kts | 351° |
| 2026-02-21 06:10 | 51.65372 | 14.47811 | 20350 ft | 426 kts | 351° |
| 2026-02-21 06:10 | 51.68313 | 14.47355 | 19757 ft | 423 kts | 351° |
| 2026-02-21 06:11 | 51.70250 | 14.47054 | 19367 ft | 421 kts | 351° |
| 2026-02-21 06:11 | 51.73149 | 14.46604 | 18782 ft | 418 kts | 351° |
| 2026-02-21 06:11 | 51.76035 | 14.46155 | 18182 ft | 415 kts | 351° |
| 2026-02-21 06:11 | 51.78905 | 14.45708 | 17534 ft | 411 kts | 351° |
| 2026-02-21 06:12 | 51.81736 | 14.45268 | 16949 ft | 406 kts | 350° |
| 2026-02-21 06:12 | 51.84543 | 14.44831 | 16359 ft | 402 kts | 350° |
| 2026-02-21 06:12 | 51.87317 | 14.44397 | 15773 ft | 398 kts | 350° |
| 2026-02-21 06:12 | 51.90070 | 14.43987 | 15281 ft | 394 kts | 352° |
| 2026-02-21 06:13 | 51.92802 | 14.43768 | 15018 ft | 395 kts | 353° |
| 2026-02-21 06:13 | 51.95200 | 14.43600 | 14799 ft | 397 kts | 353° |
| 2026-02-21 06:13 | 51.97958 | 14.43424 | 14541 ft | 396 kts | 353° |
| 2026-02-21 06:13 | 52.00672 | 14.43263 | 14289 ft | 394 kts | 353° |
| 2026-02-21 06:14 | 52.03414 | 14.43105 | 14049 ft | 392 kts | 353° |
| 2026-02-21 06:14 | 52.06138 | 14.42952 | 13812 ft | 391 kts | 353° |
| 2026-02-21 06:14 | 52.08847 | 14.42800 | 13528 ft | 389 kts | 353° |
| 2026-02-21 06:14 | 52.11545 | 14.42650 | 13251 ft | 387 kts | 353° |
| 2026-02-21 06:15 | 52.14230 | 14.42500 | 13004 ft | 385 kts | 353° |
| 2026-02-21 06:15 | 52.16903 | 14.42351 | 12729 ft | 383 kts | 353° |
| 2026-02-21 06:15 | 52.19568 | 14.42204 | 12451 ft | 382 kts | 353° |
| 2026-02-21 06:15 | 52.22211 | 14.42057 | 12193 ft | 380 kts | 353° |
| 2026-02-21 06:16 | 52.24816 | 14.41916 | 12045 ft | 365 kts | 353° |
| 2026-02-21 06:16 | 52.27299 | 14.41785 | 11904 ft | 348 kts | 353° |
| 2026-02-21 06:16 | 52.29661 | 14.41658 | 11771 ft | 332 kts | 353° |
| 2026-02-21 06:16 | 52.31919 | 14.41535 | 11630 ft | 317 kts | 352° |
| 2026-02-21 06:17 | 52.34080 | 14.41415 | 11506 ft | 304 kts | 352° |
| 2026-02-21 06:17 | 52.36124 | 14.41302 | 11351 ft | 291 kts | 352° |
| 2026-02-21 06:17 | 52.38107 | 14.41190 | 11234 ft | 279 kts | 352° |
| 2026-02-21 06:17 | 52.40012 | 14.41084 | 11080 ft | 268 kts | 351° |
| 2026-02-21 06:18 | 52.41842 | 14.40981 | 10959 ft | 258 kts | 351° |
| 2026-02-21 06:18 | 52.43630 | 14.40875 | 10776 ft | 257 kts | 351° |
| 2026-02-21 06:18 | 52.45416 | 14.40769 | 10532 ft | 256 kts | 351° |
| 2026-02-21 06:18 | 52.47183 | 14.40577 | 10278 ft | 251 kts | 344° |
| 2026-02-21 06:19 | 52.48847 | 14.39850 | 10029 ft | 245 kts | 335° |
| 2026-02-21 06:19 | 52.50443 | 14.38900 | 9778 ft | 243 kts | 332° |
| 2026-02-21 06:19 | 52.52010 | 14.37884 | 9493 ft | 240 kts | 329° |
| 2026-02-21 06:19 | 52.53351 | 14.36387 | 9210 ft | 229 kts | 308° |
| 2026-02-21 06:20 | 52.54143 | 14.34232 | 8945 ft | 221 kts | 285° |
| 2026-02-21 06:20 | 52.54277 | 14.31764 | 8701 ft | 218 kts | 262° |
| 2026-02-21 06:20 | 52.53878 | 14.29366 | 8424 ft | 218 kts | 252° |
| 2026-02-21 06:20 | 52.53334 | 14.27042 | 8152 ft | 217 kts | 250° |
| 2026-02-21 06:21 | 52.52776 | 14.24739 | 7900 ft | 216 kts | 250° |
| 2026-02-21 06:21 | 52.52230 | 14.22444 | 7637 ft | 216 kts | 250° |
| 2026-02-21 06:21 | 52.51688 | 14.20147 | 7384 ft | 215 kts | 250° |
| 2026-02-21 06:21 | 52.51155 | 14.17863 | 7133 ft | 214 kts | 251° |
| 2026-02-21 06:22 | 52.50626 | 14.15585 | 6888 ft | 213 kts | 251° |
| 2026-02-21 06:22 | 52.50102 | 14.13300 | 6635 ft | 213 kts | 251° |
| 2026-02-21 06:22 | 52.49583 | 14.11058 | 6379 ft | 213 kts | 251° |
| 2026-02-21 06:22 | 52.49058 | 14.08796 | 6123 ft | 211 kts | 251° |
| 2026-02-21 06:23 | 52.48538 | 14.06554 | 5861 ft | 210 kts | 251° |
| 2026-02-21 06:23 | 52.48025 | 14.04314 | 5585 ft | 209 kts | 252° |
| 2026-02-21 06:23 | 52.47550 | 14.02064 | 5340 ft | 208 kts | 252° |
| 2026-02-21 06:23 | 52.47057 | 13.99832 | 5124 ft | 208 kts | 251° |
| 2026-02-21 06:24 | 52.46545 | 13.97611 | 5030 ft | 208 kts | 251° |
| 2026-02-21 06:24 | 52.46031 | 13.95403 | 5023 ft | 207 kts | 251° |
| 2026-02-21 06:24 | 52.45514 | 13.93202 | 5022 ft | 206 kts | 251° |
| 2026-02-21 06:24 | 52.44995 | 13.91006 | 5018 ft | 207 kts | 251° |
| 2026-02-21 06:25 | 52.44492 | 13.88893 | 4991 ft | 195 kts | 251° |
| 2026-02-21 06:25 | 52.44003 | 13.86849 | 4831 ft | 186 kts | 251° |
| 2026-02-21 06:25 | 52.43547 | 13.84926 | 4553 ft | 181 kts | 252° |
| 2026-02-21 06:25 | 52.43098 | 13.83009 | 4284 ft | 179 kts | 252° |
| 2026-02-21 06:26 | 52.42658 | 13.81142 | 4019 ft | 174 kts | 252° |
| 2026-02-21 06:26 | 52.42225 | 13.79307 | 3737 ft | 170 kts | 251° |
| 2026-02-21 06:26 | 52.41807 | 13.77540 | 3525 ft | 163 kts | 251° |
| 2026-02-21 06:26 | 52.41405 | 13.75840 | 3289 ft | 157 kts | 252° |
| 2026-02-21 06:27 | 52.41021 | 13.74215 | 3065 ft | 150 kts | 252° |
| 2026-02-21 06:27 | 52.40655 | 13.72663 | 2874 ft | 142 kts | 252° |
| 2026-02-21 06:27 | 52.40308 | 13.71193 | 2672 ft | 134 kts | 252° |
| 2026-02-21 06:27 | 52.39984 | 13.69826 | 2503 ft | 122 kts | 251° |
| 2026-02-21 06:28 | 52.39691 | 13.68584 | 2333 ft | 116 kts | 251° |
| 2026-02-21 06:28 | 52.39403 | 13.67354 | 2176 ft | 115 kts | 251° |
| 2026-02-21 06:28 | 52.39116 | 13.66131 | 2015 ft | 115 kts | 250° |
| 2026-02-21 06:28 | 52.38828 | 13.64913 | 1854 ft | 114 kts | 248° |
| 2026-02-21 06:29 | 52.38542 | 13.63711 | 1698 ft | 112 kts | 248° |
| 2026-02-21 06:29 | 52.38259 | 13.62516 | 1519 ft | 113 kts | 246° |
| 2026-02-21 06:29 | 52.37970 | 13.61299 | 1372 ft | 116 kts | 247° |
| 2026-02-21 06:29 | 52.37677 | 13.60059 | 1201 ft | 118 kts | 246° |
| 2026-02-21 06:30 | 52.37376 | 13.58797 | 1029 ft | 120 kts | 246° |
| 2026-02-21 06:30 | 52.37069 | 13.57497 | 844 ft | 125 kts | 246° |
| 2026-02-21 06:30 | 52.36753 | 13.56158 | 674 ft | 127 kts | 245° |
| 2026-02-21 06:30 | 52.36432 | 13.54797 | 511 ft | 129 kts | 245° |
| 2026-02-21 06:31 | 52.36103 | 13.53422 | 321 ft | 129 kts | 246° |
| 2026-02-21 06:31 | 52.35800 | 13.52091 | 183 ft | 125 kts | 245° |
| 2026-02-21 06:31 | 52.35508 | 13.50910 | 164 ft | 90 kts | 249° |
| 2026-02-21 06:31 | 52.35341 | 13.50207 | 160 ft | 47 kts | 249° |
| 2026-02-21 06:32 | 52.35237 | 13.49740 | 160 ft | 40 kts | 258° |
| 2026-02-21 06:32 | 52.35241 | 13.49350 | 160 ft | 23 kts | 278° |
| 2026-02-21 06:32 | 52.35328 | 13.49222 | 160 ft | 14 kts | 9° |
| 2026-02-21 06:32 | 52.35371 | 13.49306 | 160 ft | 6 kts | 72° |
| 2026-02-21 06:33 | 52.35377 | 13.49336 | 160 ft | 3 kts | 73° |
| 2026-02-21 06:33 | 52.35385 | 13.49383 | 160 ft | 5 kts | 73° |
| 2026-02-21 06:33 | 52.35399 | 13.49450 | 160 ft | 7 kts | 72° |
| 2026-02-21 06:33 | 52.35418 | 13.49536 | 160 ft | 9 kts | 68° |
| 2026-02-21 06:34 | 52.35443 | 13.49641 | 160 ft | 11 kts | 69° |
| 2026-02-21 06:34 | 52.35473 | 13.49766 | 160 ft | 13 kts | 68° |
| 2026-02-21 06:34 | 52.35499 | 13.49876 | 160 ft | 11 kts | 68° |
| 2026-02-21 06:34 | 52.35524 | 13.49979 | 160 ft | 10 kts | 69° |
| 2026-02-21 06:35 | 52.35553 | 13.50100 | 160 ft | 13 kts | 69° |
| 2026-02-21 06:35 | 52.35587 | 13.50246 | 160 ft | 15 kts | 69° |
| 2026-02-21 06:35 | 52.35628 | 13.50420 | 160 ft | 18 kts | 69° |
| 2026-02-21 06:35 | 52.35677 | 13.50625 | 160 ft | 21 kts | 68° |
| 2026-02-21 06:36 | 52.35741 | 13.50811 | 160 ft | 18 kts | 26° |
| 2026-02-21 06:36 | 52.35863 | 13.50767 | 160 ft | 20 kts | 338° |
| 2026-02-21 06:36 | 52.35998 | 13.50682 | 160 ft | 19 kts | 339° |
| 2026-02-21 06:36 | 52.36055 | 13.50683 | 160 ft | 8 kts | 35° |
| 2026-02-21 06:37 | 52.36084 | 13.50770 | 160 ft | 8 kts | 69° |
| 2026-02-21 06:37 | 52.36085 | 13.50777 | 160 ft | 0 kts | 69° |